Time;durP1;ratioP1;P1;durP2;ratioP2;P2;SDS_P1;SDS_P2;PMS_P1;PMS_P2;Temp;Humidity;BMP_temperature;BMP_pressure;BME280_temperature;BME280_humidity;BME280_pressure;Samples;Min_cycle;Max_cycle;Signal;HPM_P1;HPM_P2
2021/06/30 00:00:56;;;;;;;2.70;2.00;;;;;;;16.07;100.00;98474.31;4824161;29;20042;-54
2021/06/30 00:03:22;;;;;;;2.83;1.80;;;;;;;16.03;100.00;98460.63;4806568;29;20053;-53
2021/06/30 00:05:48;;;;;;;4.05;1.75;;;;;;;16.02;100.00;98473.84;4796023;29;20049;-54
2021/06/30 00:08:14;;;;;;;3.35;1.88;;;;;;;15.99;100.00;98455.72;4796659;29;20038;-53
2021/06/30 00:11:05;;;;;;;4.80;2.35;;;;;;;16.02;100.00;98465.97;4811828;29;20049;-55
2021/06/30 00:13:31;;;;;;;6.55;1.98;;;;;;;16.01;100.00;98473.03;4808205;29;20488;-53
2021/06/30 00:15:57;;;;;;;3.60;2.10;;;;;;;16.00;100.00;98468.72;4806619;29;20046;-50
2021/06/30 00:18:24;;;;;;;4.00;2.28;;;;;;;15.99;100.00;98487.19;4807786;29;20041;-54
2021/06/30 00:20:51;;;;;;;2.80;1.83;;;;;;;15.98;100.00;98482.88;4791619;29;20482;-54
2021/06/30 00:23:18;;;;;;;3.15;2.20;;;;;;;15.96;100.00;98466.47;4801257;29;20051;-52
2021/06/30 00:25:45;;;;;;;2.78;2.00;;;;;;;15.94;100.00;98478.84;4792199;29;20520;-50
2021/06/30 00:28:12;;;;;;;3.42;1.92;;;;;;;15.96;100.00;98484.81;4789339;29;20046;-52
2021/06/30 00:31:29;;;;;;;5.35;2.03;;;;;;;15.97;100.00;98473.34;4792715;29;20532;-53
2021/06/30 00:33:55;;;;;;;3.13;2.13;;;;;;;16.03;100.00;98475.50;4818298;29;20049;-52
2021/06/30 00:36:21;;;;;;;2.20;2.00;;;;;;;16.05;100.00;98465.75;4811652;29;20046;-54
2021/06/30 00:38:47;;;;;;;3.33;2.10;;;;;;;16.05;100.00;98473.63;4801530;29;20042;-53
2021/06/30 00:41:39;;;;;;;2.92;2.22;;;;;;;16.04;100.00;98477.19;4823894;29;20045;-50
2021/06/30 00:44:05;;;;;;;3.00;1.85;;;;;;;16.04;100.00;98475.41;4801220;29;20049;-51
2021/06/30 00:46:32;;;;;;;3.30;2.10;;;;;;;16.05;100.00;98474.47;4798113;29;20583;-54
2021/06/30 00:48:59;;;;;;;3.80;2.10;;;;;;;16.05;100.00;98473.63;4797971;29;20046;-50
2021/06/30 00:51:26;;;;;;;2.53;1.80;;;;;;;16.01;100.00;98480.88;4794921;29;20038;-51
2021/06/30 00:53:52;;;;;;;5.90;2.47;;;;;;;16.00;100.00;98476.59;4779339;29;20046;-51
2021/06/30 00:56:24;;;;;;;2.88;1.83;;;;;;;16.03;100.00;98480.75;4816120;29;20489;-51
2021/06/30 00:58:52;;;;;;;4.78;2.13;;;;;;;16.04;100.00;98477.19;4811481;29;20075;-53
2021/06/30 01:05:36;;;;;;;2.72;2.08;;;;;;;16.05;100.00;98471.84;4857597;29;20137;-50
2021/06/30 01:08:03;;;;;;;3.67;2.10;;;;;;;16.15;100.00;98468.50;4830924;29;20050;-50
2021/06/30 01:10:30;;;;;;;4.90;2.10;;;;;;;16.15;100.00;98476.38;4798366;29;20050;-55
2021/06/30 01:12:56;;;;;;;2.13;1.65;;;;;;;16.17;100.00;98483.19;4802262;29;20505;-55
2021/06/30 01:15:22;;;;;;;3.28;2.15;;;;;;;16.13;100.00;98473.84;4826119;29;20143;-51
2021/06/30 01:17:50;;;;;;;2.55;2.13;;;;;;;16.15;100.00;98476.38;4790753;29;20034;-51
2021/06/30 01:20:17;;;;;;;3.78;2.10;;;;;;;16.13;100.00;98478.25;4791423;29;20048;-52
2021/06/30 01:23:07;;;;;;;3.65;2.35;;;;;;;16.14;100.00;98478.16;4798368;29;20037;-52
2021/06/30 01:25:32;;;;;;;3.97;1.95;;;;;;;16.15;100.00;98477.22;4794884;29;20049;-53
2021/06/30 01:27:59;;;;;;;3.72;2.33;;;;;;;16.18;100.00;98487.44;4785788;29;20057;-53
2021/06/30 01:34:05;;;;;;;5.82;2.88;;;;;;;16.19;100.00;98481.25;4811807;29;20061;-53
2021/06/30 01:36:46;;;;;;;4.93;2.40;;;;;;;16.24;100.00;98479.13;4787713;29;20046;-51
2021/06/30 01:39:12;;;;;;;2.55;1.75;;;;;;;16.26;100.00;98481.63;4789316;29;20050;-54
2021/06/30 01:41:39;;;;;;;3.08;2.45;;;;;;;16.26;100.00;98481.63;4790172;29;20091;-52
2021/06/30 01:44:06;;;;;;;3.17;2.35;;;;;;;16.28;100.00;98479.72;4800176;29;20052;-53
2021/06/30 01:46:32;;;;;;;3.65;2.50;;;;;;;16.32;100.00;98475.94;4780091;29;20047;-53
2021/06/30 01:48:58;;;;;;;2.85;1.67;;;;;;;16.32;100.00;98463.66;4807915;29;20509;-55
2021/06/30 01:59:34;;;;;;;5.50;2.33;;;;;;;16.38;100.00;98467.59;4796967;29;20687;-51
2021/06/30 02:02:01;;;;;;;3.80;2.40;;;;;;;16.40;100.00;98461.25;4800267;29;20042;-53
2021/06/30 02:04:27;;;;;;;6.30;2.58;;;;;;;16.44;100.00;98460.06;4791915;29;20073;-52
2021/06/30 02:06:53;;;;;;;4.60;2.33;;;;;;;16.46;100.00;98459.94;4786432;29;20054;-53
2021/06/30 02:09:20;;;;;;;3.25;1.92;;;;;;;16.47;100.00;98459.00;4794965;29;20050;-55
2021/06/30 02:11:46;;;;;;;3.45;2.38;;;;;;;16.46;100.00;98462.56;4810203;29;20038;-54
2021/06/30 02:14:12;;;;;;;3.00;2.20;;;;;;;16.50;100.00;98446.47;4775331;29;20045;-53
2021/06/30 02:16:38;;;;;;;5.72;2.65;;;;;;;16.57;100.00;98457.31;4790110;29;20069;-52
2021/06/30 02:19:06;;;;;;;3.38;2.10;;;;;;;16.64;100.00;98468.22;4786962;29;20513;-55
2021/06/30 02:21:34;;;;;;;7.82;2.70;;;;;;;16.63;100.00;98456.88;4781861;29;20054;-53
2021/06/30 02:24:00;;;;;;;3.70;2.67;;;;;;;16.63;100.00;98454.25;4808169;29;20041;-50
2021/06/30 02:26:28;;;;;;;4.25;2.55;;;;;;;16.62;100.00;98462.25;4791013;29;20501;-50
2021/06/30 02:28:55;;;;;;;4.38;2.58;;;;;;;16.63;100.00;98462.13;4789969;29;20124;-50
2021/06/30 02:31:21;;;;;;;3.45;2.60;;;;;;;16.62;100.00;98472.72;4775679;29;20042;-54
2021/06/30 02:33:47;;;;;;;2.40;2.15;;;;;;;16.63;100.00;98467.38;4794103;29;20062;-55
2021/06/30 02:36:13;;;;;;;3.20;2.40;;;;;;;16.61;100.00;98463.19;4790964;29;20042;-51
2021/06/30 02:38:39;;;;;;;3.97;2.55;;;;;;;16.59;100.00;98465.13;4799185;29;20057;-53
2021/06/30 02:41:56;;;;;;;5.72;2.78;;;;;;;16.57;100.00;98467.81;4796804;29;20046;-52
2021/06/30 02:44:21;;;;;;;4.93;2.20;;;;;;;16.59;100.00;98467.75;4819901;29;20876;-52
2021/06/30 02:46:48;;;;;;;4.63;2.40;;;;;;;16.57;100.00;98469.59;4792197;29;20489;-55
2021/06/30 02:49:13;;;;;;;4.07;2.60;;;;;;;16.62;100.00;98470.09;4820499;29;20042;-54
2021/06/30 02:51:39;;;;;;;6.07;2.90;;;;;;;16.67;100.00;98475.84;4808018;29;20131;-52
2021/06/30 02:54:06;;;;;;;6.45;2.78;;;;;;;16.65;100.00;98472.47;4784490;29;20125;-53
2021/06/30 02:56:32;;;;;;;3.80;2.53;;;;;;;16.64;100.00;98462.97;4808842;29;20579;-54
2021/06/30 02:58:58;;;;;;;3.70;2.63;;;;;;;16.57;100.00;98457.31;4812905;29;20041;-54
2021/06/30 03:01:52;;;;;;;5.95;2.22;;;;;;;16.55;100.00;98459.22;4804357;29;20036;-55
2021/06/30 03:04:18;;;;;;;3.42;2.55;;;;;;;16.61;100.00;98465.81;4821189;29;20045;-52
2021/06/30 03:06:44;;;;;;;4.00;2.33;;;;;;;16.66;100.00;98466.28;4787000;29;20527;-52
2021/06/30 03:09:10;;;;;;;3.50;2.33;;;;;;;16.66;100.00;98464.50;4808550;29;20041;-54
2021/06/30 03:11:36;;;;;;;5.07;3.15;;;;;;;16.68;100.00;98464.38;4821795;29;20045;-53
2021/06/30 03:14:01;;;;;;;4.70;2.30;;;;;;;16.74;100.00;98458.66;4808818;29;20049;-54
2021/06/30 03:16:27;;;;;;;3.67;1.90;;;;;;;16.75;100.00;98458.50;4807928;29;20081;-54
2021/06/30 03:18:53;;;;;;;5.20;2.67;;;;;;;16.75;100.00;98455.88;4818937;29;20102;-55
2021/06/30 03:24:49;;;;;;;4.47;3.33;;;;;;;16.76;100.00;98447.06;4814784;29;20492;-53
2021/06/30 03:27:15;;;;;;;6.50;2.58;;;;;;;16.84;100.00;98447.31;4817546;29;20046;-53
2021/06/30 03:29:41;;;;;;;4.68;2.88;;;;;;;16.88;100.00;98448.72;4807281;29;20407;-52
2021/06/30 03:32:07;;;;;;;2.28;1.73;;;;;;;16.89;100.00;98454.81;4807981;29;20078;-51
2021/06/30 03:34:33;;;;;;;6.30;2.45;;;;;;;16.83;100.00;98452.69;4808055;29;20064;-53
2021/06/30 03:36:59;;;;;;;2.95;2.00;;;;;;;16.82;100.00;98440.50;4807903;29;20037;-54
2021/06/30 03:39:25;;;;;;;3.00;2.42;;;;;;;16.85;100.00;98443.69;4824049;29;20041;-52
2021/06/30 03:42:16;;;;;;;5.22;2.53;;;;;;;16.85;100.00;98438.47;4794990;29;20042;-55
2021/06/30 03:44:42;;;;;;;2.30;1.95;;;;;;;16.88;100.00;98435.59;4810964;29;20057;-55
2021/06/30 03:47:08;;;;;;;3.38;2.70;;;;;;;16.92;100.00;98431.78;4807894;29;20073;-54
2021/06/30 03:49:34;;;;;;;3.67;2.42;;;;;;;17.06;100.00;98433.28;4794457;29;20112;-54
2021/06/30 03:52:04;;;;;;;4.72;2.47;;;;;;;17.08;99.19;98435.78;4794713;29;20452;-54
2021/06/30 03:54:30;;;;;;;3.78;2.60;;;;;;;17.26;97.66;98452.69;4793906;29;20098;-51
2021/06/30 03:56:56;;;;;;;4.60;2.33;;;;;;;17.40;96.75;98433.16;4810895;29;20446;-55
2021/06/30 03:59:22;;;;;;;2.65;2.00;;;;;;;17.57;94.56;98436.09;4803859;29;20084;-54
2021/06/30 04:01:50;;;;;;;4.50;2.15;;;;;;;17.67;93.82;98442.28;4786014;29;20121;-52
2021/06/30 04:04:18;;;;;;;4.40;2.25;;;;;;;17.67;93.07;98441.44;4811779;29;20053;-53
2021/06/30 04:06:44;;;;;;;4.45;1.85;;;;;;;17.71;92.32;98445.47;4799733;29;20164;-54
2021/06/30 04:09:10;;;;;;;4.93;2.55;;;;;;;17.67;92.90;98451.97;4796311;29;20045;-56
2021/06/30 04:15:43;;;;;;;5.43;2.65;;;;;;;17.68;93.26;98443.94;4840390;29;20051;-53
2021/06/30 04:18:10;;;;;;;5.72;2.13;;;;;;;17.72;92.91;98455.03;4837708;29;20428;-51
2021/06/30 04:24:56;;;;;;;3.20;2.17;;;;;;;17.78;92.56;98446.66;4853563;29;20061;-53
2021/06/30 04:27:22;;;;;;;2.22;1.50;;;;;;;17.80;91.10;98444.69;4792480;29;20053;-54
2021/06/30 04:29:49;;;;;;;3.95;2.63;;;;;;;17.84;92.53;98450.56;4808482;29;20081;-55
2021/06/30 04:32:40;;;;;;;1.95;1.60;;;;;;;18.01;90.70;98448.16;4795592;29;20073;-56
2021/06/30 04:35:07;;;;;;;4.95;2.58;;;;;;;18.24;90.33;98451.47;4775635;29;20131;-53
2021/06/30 04:37:34;;;;;;;4.82;2.47;;;;;;;18.54;87.88;98459.41;4799610;29;20053;-54
2021/06/30 04:40:00;;;;;;;5.30;2.33;;;;;;;18.68;85.77;98460.03;4768181;29;20042;-54
2021/06/30 04:42:26;;;;;;;3.30;1.88;;;;;;;18.62;84.88;98466.66;4789328;29;20532;-54
2021/06/30 04:44:52;;;;;;;4.00;1.88;;;;;;;18.57;84.48;98471.50;4790724;29;20052;-56
2021/06/30 04:47:18;;;;;;;5.38;2.28;;;;;;;18.48;85.17;98467.78;4787770;29;20042;-53
2021/06/30 04:49:45;;;;;;;3.53;2.10;;;;;;;18.51;85.51;98471.97;4777927;29;20050;-54
2021/06/30 04:52:40;;;;;;;4.18;2.28;;;;;;;18.47;85.82;98463.53;4793212;29;20037;-54
2021/06/30 04:55:07;;;;;;;3.90;2.10;;;;;;;18.46;84.77;98474.19;4778833;29;20421;-55
2021/06/30 04:57:35;;;;;;;4.82;2.10;;;;;;;18.51;85.76;98479.88;4775863;29;20050;-54
2021/06/30 05:00:03;;;;;;;2.85;1.60;;;;;;;18.44;83.59;98460.28;4788641;29;20056;-55
2021/06/30 05:02:29;;;;;;;1.73;1.50;;;;;;;18.47;84.20;98463.53;4776115;29;20056;-54
2021/06/30 05:04:55;;;;;;;2.08;1.65;;;;;;;18.63;82.98;98463.88;4764671;29;20300;-54
2021/06/30 05:07:21;;;;;;;2.63;1.80;;;;;;;18.73;82.42;98468.38;4789727;29;20054;-55
2021/06/30 05:09:47;;;;;;;2.53;2.13;;;;;;;19.00;81.83;98479.09;4780288;29;20137;-50
2021/06/30 05:13:04;;;;;;;6.30;2.05;;;;;;;19.09;80.22;98470.41;4791580;29;20045;-53
2021/06/30 05:15:30;;;;;;;2.78;1.95;;;;;;;19.13;79.59;98470.94;4794915;29;20062;-51
2021/06/30 05:17:56;;;;;;;5.53;2.30;;;;;;;19.22;79.75;98475.41;4786252;29;20418;-50
2021/06/30 05:21:12;;;;;;;2.95;1.88;;;;;;;19.27;77.80;98460.00;4774320;29;20042;-52
2021/06/30 05:23:38;;;;;;;3.35;1.90;;;;;;;19.30;77.58;98462.38;4795520;29;20145;-52
2021/06/30 05:26:04;;;;;;;1.60;1.50;;;;;;;19.28;78.12;98459.88;4787967;29;20077;-54
2021/06/30 05:28:30;;;;;;;3.65;2.05;;;;;;;19.28;78.18;98459.88;4792963;29;20088;-54
2021/06/30 05:31:05;;;;;;;4.60;2.30;;;;;;;19.21;78.49;98453.47;4778882;29;20042;-53
2021/06/30 05:33:31;;;;;;;4.45;2.20;;;;;;;19.27;78.63;98462.66;4784526;29;20082;-54
2021/06/30 05:35:57;;;;;;;3.95;2.15;;;;;;;19.50;77.81;98458.00;4808619;29;20570;-53
2021/06/30 05:38:24;;;;;;;3.75;2.03;;;;;;;19.71;76.95;98461.31;4791861;29;20042;-52
2021/06/30 05:41:41;;;;;;;3.55;2.22;;;;;;;19.87;75.02;98451.88;4807330;29;20046;-53
2021/06/30 05:44:09;;;;;;;3.67;2.17;;;;;;;19.97;74.29;98453.66;4817789;29;20497;-53
2021/06/30 05:46:35;;;;;;;3.13;1.70;;;;;;;20.03;73.96;98456.56;4801168;29;20069;-52
2021/06/30 05:49:01;;;;;;;4.13;2.00;;;;;;;19.87;74.52;98448.41;4793431;29;20507;-50
2021/06/30 05:51:43;;;;;;;3.83;2.00;;;;;;;19.81;75.00;98452.41;4808464;29;20068;-52
2021/06/30 05:54:10;;;;;;;3.95;2.00;;;;;;;19.92;74.49;98450.59;4808866;29;20038;-54
2021/06/30 05:56:39;;;;;;;5.60;2.08;;;;;;;20.19;73.51;98440.97;4802032;29;20058;-55
2021/06/30 05:59:05;;;;;;;3.25;1.98;;;;;;;20.50;72.61;98438.09;4820557;29;20049;-54
2021/06/30 06:02:02;;;;;;;2.28;1.20;;;;;;;20.42;70.53;98422.97;4794499;29;20524;-55
2021/06/30 06:04:28;;;;;;;3.90;2.00;;;;;;;20.37;71.24;98437.59;4816560;29;20046;-51
2021/06/30 06:06:54;;;;;;;4.53;2.00;;;;;;;20.29;71.80;98438.28;4791493;29;20506;-53
2021/06/30 06:09:20;;;;;;;3.80;1.90;;;;;;;20.20;71.56;98428.59;4814816;29;20601;-55
2021/06/30 06:11:46;;;;;;;4.10;1.60;;;;;;;20.39;71.11;98430.38;4796408;29;20133;-49
2021/06/30 06:14:12;;;;;;;2.65;1.75;;;;;;;20.57;69.85;98445.28;4790864;29;20052;-51
2021/06/30 06:16:38;;;;;;;3.80;2.10;;;;;;;20.62;69.61;98423.75;4798424;29;20042;-53
2021/06/30 06:19:04;;;;;;;3.10;2.00;;;;;;;20.51;69.54;98431.84;4788958;29;20140;-52
2021/06/30 06:21:32;;;;;;;3.15;1.80;;;;;;;20.42;70.38;98443.25;4803035;29;20057;-51
2021/06/30 06:23:58;;;;;;;2.05;1.50;;;;;;;20.36;70.52;98441.22;4806803;29;20080;-57
2021/06/30 06:26:24;;;;;;;4.28;2.05;;;;;;;20.45;70.97;98427.16;4809615;29;20064;-58
2021/06/30 06:28:50;;;;;;;3.53;1.88;;;;;;;20.69;69.57;98427.44;4809017;29;20508;-58
2021/06/30 06:31:50;;;;;;;3.83;1.83;;;;;;;20.72;68.98;98419.25;4810629;29;20046;-57
2021/06/30 06:34:20;;;;;;;4.97;2.03;;;;;;;20.84;68.41;98425.97;4825015;29;20077;-57
2021/06/30 06:36:50;;;;;;;5.20;2.05;;;;;;;20.93;66.76;98425.09;4796073;29;20095;-58
2021/06/30 06:39:17;;;;;;;5.70;2.10;;;;;;;20.95;66.32;98436.34;4808186;29;20488;-58
2021/06/30 06:45:49;;;;;;;4.88;2.03;;;;;;;21.52;64.88;98440.41;4859589;29;20148;-60
2021/06/30 06:48:15;;;;;;;5.88;2.15;;;;;;;21.60;64.42;98444.94;4827366;29;20611;-58
2021/06/30 06:50:41;;;;;;;4.28;1.75;;;;;;;22.14;61.51;98458.97;4818299;29;20068;-59
2021/06/30 06:53:07;;;;;;;2.40;1.52;;;;;;;22.42;59.55;98454.31;4816551;29;20181;-60
2021/06/30 06:55:34;;;;;;;2.88;1.30;;;;;;;22.10;59.55;98441.72;4817638;29;20057;-58
2021/06/30 06:58:00;;;;;;;2.95;1.90;;;;;;;22.94;58.07;98444.47;4804765;29;20045;-58
2021/06/30 07:03:21;;;;;;;6.43;2.13;;;;;;;24.17;54.15;98453.28;5051881;24;20062;-57
2021/06/30 07:05:47;;;;;;;5.20;2.40;;;;;;;25.37;50.29;98458.31;4842365;29;20054;-56
2021/06/30 07:08:12;;;;;;;1.73;1.63;;;;;;;25.89;48.47;98458.44;4835468;29;20045;-53
2021/06/30 07:13:38;;;;;;;6.82;3.75;;;;;;;24.42;51.70;98444.25;5012993;24;20440;-56
2021/06/30 07:16:04;;;;;;;3.72;1.88;;;;;;;23.83;53.49;98439.31;4870354;29;20055;-57
2021/06/30 07:18:34;;;;;;;2.50;1.90;;;;;;;23.38;54.16;98445.09;4870544;29;20048;-58
2021/06/30 07:21:01;;;;;;;2.40;2.20;;;;;;;23.74;52.64;98451.78;4863985;29;20508;-55
2021/06/30 07:23:27;;;;;;;3.55;1.88;;;;;;;25.35;48.03;98438.19;4869888;29;20424;-56
2021/06/30 07:25:53;;;;;;;4.75;1.90;;;;;;;26.28;45.06;98447.59;4897160;29;20076;-56
2021/06/30 07:28:19;;;;;;;3.72;1.73;;;;;;;25.82;45.51;98441.53;4897536;29;20072;-55
2021/06/30 07:30:45;;;;;;;4.20;1.88;;;;;;;25.68;47.06;98440.47;4887409;29;20041;-56
2021/06/30 07:33:11;;;;;;;5.18;2.40;;;;;;;25.65;46.89;98440.81;4870979;29;20067;-56
2021/06/30 07:35:37;;;;;;;3.35;1.85;;;;;;;25.08;48.45;98445.66;4883909;29;20532;-54
2021/06/30 07:38:03;;;;;;;4.10;1.75;;;;;;;24.38;48.79;98450.91;4888165;29;20052;-55
2021/06/30 07:40:29;;;;;;;2.13;1.50;;;;;;;24.30;48.86;98437.63;4894005;29;20103;-56
2021/06/30 07:42:55;;;;;;;3.08;1.73;;;;;;;23.60;50.66;98439.19;4887291;29;20044;-55
2021/06/30 07:45:22;;;;;;;2.25;1.80;;;;;;;23.24;52.39;98447.38;4861726;29;20043;-54
2021/06/30 07:47:48;;;;;;;2.10;1.77;;;;;;;23.23;52.51;98452.84;4869586;29;20071;-56
2021/06/30 07:50:16;;;;;;;2.20;1.90;;;;;;;23.77;49.88;98447.94;4877622;29;20049;-55
2021/06/30 07:52:43;;;;;;;2.20;1.90;;;;;;;23.88;49.30;98439.66;4891201;29;20108;-56
2021/06/30 07:55:09;;;;;;;2.28;1.88;;;;;;;23.19;51.12;98448.84;4873152;29;20037;-56
2021/06/30 07:57:35;;;;;;;3.25;1.88;;;;;;;22.96;52.99;98439.84;4874497;29;20048;-54
2021/06/30 08:00:00;;;;;;;2.83;1.90;;;;;;;23.36;51.98;98437.28;4878092;29;20048;-56
2021/06/30 08:02:26;;;;;;;8.90;2.50;;;;;;;23.68;51.82;98441.81;4882745;29;20575;-55
2021/06/30 08:04:52;;;;;;;3.85;1.65;;;;;;;23.80;50.21;98447.63;4869637;29;20049;-55
2021/06/30 08:07:17;;;;;;;4.18;1.80;;;;;;;23.48;51.16;98451.94;4868948;29;20520;-55
2021/06/30 08:09:43;;;;;;;3.45;1.95;;;;;;;23.07;51.92;98443.03;4891418;29;20056;-56
2021/06/30 08:12:09;;;;;;;4.15;1.80;;;;;;;22.83;53.31;98448.25;4867984;29;20056;-58
2021/06/30 08:14:35;;;;;;;2.67;2.10;;;;;;;22.80;53.28;98457.38;4872004;29;20040;-58
2021/06/30 08:17:02;;;;;;;5.47;2.03;;;;;;;22.62;53.80;98451.28;4858223;29;20056;-56
2021/06/30 08:19:29;;;;;;;5.05;1.92;;;;;;;22.55;53.65;98454.72;4872354;29;20059;-55
2021/06/30 08:24:51;;;;;;;2.55;2.35;;;;;;;22.30;55.33;98451.94;4923483;24;20061;-58
2021/06/30 08:27:19;;;;;;;2.33;1.92;;;;;;;22.10;55.83;98457.59;4857642;29;20045;-58
2021/06/30 08:29:45;;;;;;;3.22;2.22;;;;;;;21.90;56.45;98451.63;4856491;29;20052;-58
2021/06/30 08:32:11;;;;;;;2.13;1.65;;;;;;;21.79;56.78;98463.28;4839131;29;20041;-57
2021/06/30 08:34:37;;;;;;;5.65;2.40;;;;;;;21.73;57.01;98466.53;4859746;29;20662;-58
2021/06/30 08:37:06;;;;;;;5.90;2.55;;;;;;;21.95;57.39;98468.75;4856050;29;20515;-58
2021/06/30 08:39:32;;;;;;;3.75;2.28;;;;;;;22.19;56.67;98467.28;4848497;29;20049;-58
2021/06/30 08:41:58;;;;;;;7.32;2.15;;;;;;;22.24;56.24;98478.22;4854038;29;20527;-59
2021/06/30 08:44:24;;;;;;;2.58;2.05;;;;;;;22.29;55.49;98473.28;4858305;29;20048;-56
2021/06/30 08:46:51;;;;;;;3.03;2.08;;;;;;;22.36;55.24;98496.34;4855528;29;20052;-56
2021/06/30 08:49:19;;;;;;;3.85;2.15;;;;;;;22.41;55.29;98479.97;4841126;29;20041;-60
2021/06/30 08:51:45;;;;;;;5.63;2.33;;;;;;;22.74;54.86;98486.31;4856493;29;20076;-56
2021/06/30 08:54:12;;;;;;;2.75;2.00;;;;;;;22.79;54.26;98484.00;4855387;29;20069;-55
2021/06/30 08:56:39;;;;;;;3.85;2.30;;;;;;;22.58;55.19;98480.91;4865400;29;20041;-57
2021/06/30 08:59:05;;;;;;;2.13;1.55;;;;;;;22.14;56.40;98494.19;4866674;29;20079;-58
2021/06/30 09:01:35;;;;;;;3.50;1.90;;;;;;;21.62;58.31;98497.69;4852545;29;20041;-56
2021/06/30 09:04:01;;;;;;;3.78;1.77;;;;;;;21.34;59.36;98484.53;4835252;29;20512;-58
2021/06/30 09:06:27;;;;;;;6.70;2.67;;;;;;;21.18;60.73;98491.47;4856974;29;20053;-57
2021/06/30 09:09:14;;;;;;;5.25;2.10;;;;;;;21.15;60.97;98489.94;4857460;29;20045;-56
2021/06/30 09:11:42;;;;;;;4.25;2.05;;;;;;;21.12;61.43;98490.22;4855685;29;20097;-56
2021/06/30 09:14:21;;;;;;;6.13;2.00;;;;;;;21.06;61.01;98488.16;4855235;29;20089;-57
2021/06/30 09:16:53;;;;;;;3.13;2.00;;;;;;;20.81;61.48;98483.56;4857768;29;20524;-59
2021/06/30 09:19:19;;;;;;;2.67;1.73;;;;;;;20.69;62.41;98480.28;4858333;29;20049;-58
2021/06/30 09:21:44;;;;;;;6.22;2.03;;;;;;;20.67;62.89;98482.25;4860513;29;20513;-57
2021/06/30 09:24:18;;;;;;;2.20;1.95;;;;;;;20.63;63.07;98475.56;4856501;29;20549;-54
2021/06/30 09:26:50;;;;;;;5.72;2.05;;;;;;;20.76;62.87;98475.25;4860035;29;20148;-56
2021/06/30 09:29:17;;;;;;;4.55;2.00;;;;;;;20.87;62.70;98475.88;4859447;29;20317;-58
2021/06/30 09:31:45;;;;;;;4.18;2.50;;;;;;;21.43;61.36;98473.06;4855737;29;20148;-56
2021/06/30 09:34:11;;;;;;;2.22;1.90;;;;;;;22.37;57.85;98479.47;4858916;29;20080;-60
2021/06/30 09:37:01;;;;;;;8.13;2.22;;;;;;;22.85;56.15;98501.09;4855663;29;20081;-60
2021/06/30 09:39:34;;;;;;;6.13;2.30;;;;;;;22.58;56.82;98476.44;4856381;29;20145;-61
2021/06/30 09:42:10;;;;;;;3.30;2.17;;;;;;;22.75;56.90;98472.91;4873442;29;20105;-60
2021/06/30 09:44:42;;;;;;;3.97;2.17;;;;;;;23.04;56.33;98474.31;4854124;29;20674;-57
2021/06/30 09:47:08;;;;;;;3.58;1.90;;;;;;;23.14;56.05;98470.56;4860522;29;20045;-60
2021/06/30 09:49:39;;;;;;;3.25;2.17;;;;;;;22.84;57.40;98475.59;4863230;29;20049;-59
2021/06/30 09:52:19;;;;;;;4.30;2.05;;;;;;;22.47;58.15;98476.69;4878110;29;20067;-59
2021/06/30 09:54:47;;;;;;;3.03;1.80;;;;;;;22.00;59.07;98483.31;4859157;29;20049;-59
2021/06/30 09:57:15;;;;;;;1.98;1.55;;;;;;;21.66;60.80;98481.38;4879270;29;20626;-58
2021/06/30 09:59:46;;;;;;;5.18;2.17;;;;;;;21.57;61.33;98482.25;4863391;29;20041;-59
2021/06/30 10:02:22;;;;;;;5.55;2.15;;;;;;;21.66;61.35;98485.84;4869355;29;20054;-61
2021/06/30 10:05:00;;;;;;;2.45;2.20;;;;;;;21.78;61.32;98482.78;4861783;29;20144;-58
2021/06/30 10:07:28;;;;;;;5.00;2.10;;;;;;;22.17;60.34;98480.66;4859670;29;20069;-60
2021/06/30 10:09:55;;;;;;;3.22;2.30;;;;;;;22.29;59.68;98482.06;4843628;29;20045;-60
2021/06/30 10:12:27;;;;;;;4.65;2.17;;;;;;;22.23;59.70;98489.78;4859988;29;20105;-60
2021/06/30 10:14:53;;;;;;;4.35;1.85;;;;;;;22.08;59.94;98492.19;4852783;29;20041;-59
2021/06/30 10:17:20;;;;;;;3.05;2.05;;;;;;;21.89;60.60;98494.94;4862260;29;20040;-59
2021/06/30 10:19:47;;;;;;;2.53;1.75;;;;;;;21.88;60.14;98494.13;4845025;29;20473;-59
2021/06/30 10:22:13;;;;;;;2.83;2.03;;;;;;;22.05;60.74;98496.94;4868800;29;20516;-61
2021/06/30 10:24:40;;;;;;;2.75;2.20;;;;;;;21.83;61.29;98498.22;4859074;29;20516;-57
2021/06/30 10:27:06;;;;;;;4.25;2.35;;;;;;;21.82;61.67;98494.75;4870628;29;20485;-61
2021/06/30 10:29:35;;;;;;;4.28;1.80;;;;;;;21.86;61.92;98500.56;4868383;29;20097;-59
2021/06/30 10:32:12;;;;;;;2.45;1.90;;;;;;;21.63;62.02;98504.63;4840994;29;20047;-59
2021/06/30 10:34:46;;;;;;;2.92;1.70;;;;;;;21.42;63.28;98502.28;4852760;29;20053;-57
2021/06/30 10:37:26;;;;;;;3.72;2.00;;;;;;;21.45;63.64;98496.72;4856333;29;20072;-57
2021/06/30 10:39:56;;;;;;;5.10;1.90;;;;;;;21.54;63.77;98498.44;4855861;29;20048;-59
2021/06/30 10:42:26;;;;;;;4.53;2.53;;;;;;;21.63;63.47;98509.94;4857336;29;20428;-59
2021/06/30 10:44:55;;;;;;;3.03;2.47;;;;;;;21.53;63.95;98516.13;4858963;29;20049;-58
2021/06/30 10:47:39;;;;;;;3.10;2.30;;;;;;;21.66;63.18;98533.44;4853099;29;20045;-63
2021/06/30 10:50:22;;;;;;;2.97;1.98;;;;;;;21.45;64.21;98512.59;4853113;29;20068;-61
2021/06/30 10:52:54;;;;;;;4.82;2.13;;;;;;;21.44;64.29;98514.41;5312417;24;20037;-58
2021/06/30 10:58:19;;;;;;;1.90;1.70;;;;;;;21.27;64.66;98519.63;4859528;29;20532;-57
2021/06/30 11:00:45;;;;;;;1.73;1.55;;;;;;;21.23;65.21;98520.94;4841229;29;20049;-57
2021/06/30 11:03:22;;;;;;;7.15;2.10;;;;;;;21.29;65.60;98518.53;4812724;29;20048;-61
2021/06/30 11:06:09;;;;;;;4.60;1.63;;;;;;;21.53;64.94;98516.13;4837365;29;20045;-56
2021/06/30 11:08:38;;;;;;;3.10;1.60;;;;;;;21.81;64.00;98521.34;4833766;29;20053;-54
2021/06/30 11:11:03;;;;;;;1.60;1.23;;;;;;;21.72;62.68;98530.22;4848849;29;20132;-56
2021/06/30 11:13:55;;;;;;;3.60;1.60;;;;;;;21.80;62.32;98533.75;4841807;29;20600;-54
2021/06/30 11:16:39;;;;;;;2.85;1.33;;;;;;;21.81;61.92;98529.28;4849125;29;20144;-55
2021/06/30 11:19:30;;;;;;;3.60;1.50;;;;;;;21.51;62.55;98520.72;4857873;29;20063;-57
2021/06/30 11:22:06;;;;;;;3.85;1.80;;;;;;;21.13;64.18;98523.59;4841123;29;20057;-54
2021/06/30 11:27:24;;;;;;;5.18;1.73;;;;;;;20.73;66.67;98537.94;4840704;29;20077;-58
2021/06/30 11:29:53;;;;;;;3.88;1.58;;;;;;;20.80;67.00;98540.00;4845199;29;20047;-57
2021/06/30 11:32:37;;;;;;;4.28;1.50;;;;;;;20.89;66.80;98542.59;4859439;29;20045;-58
2021/06/30 11:35:23;;;;;;;2.30;1.35;;;;;;;20.81;67.23;98539.03;4841148;29;20057;-58
2021/06/30 11:38:13;;;;;;;2.22;1.20;;;;;;;20.59;68.03;98551.63;4857710;29;20086;-58
2021/06/30 11:40:57;;;;;;;1.40;1.20;;;;;;;20.33;69.57;98541.81;4847953;29;20041;-57
2021/06/30 11:43:29;;;;;;;2.10;1.20;;;;;;;20.46;69.79;98547.63;4855468;29;20493;-54
2021/06/30 11:45:58;;;;;;;2.53;1.58;;;;;;;20.82;68.41;98543.34;4845531;29;20042;-55
2021/06/30 11:48:25;;;;;;;1.30;1.20;;;;;;;21.61;65.49;98536.56;4848175;29;20077;-57
2021/06/30 11:50:54;;;;;;;2.65;1.20;;;;;;;22.13;62.99;98537.56;4856396;29;20093;-59
2021/06/30 11:53:33;;;;;;;1.88;1.23;;;;;;;21.88;63.72;98546.22;4839386;29;20076;-56
2021/06/30 11:55:59;;;;;;;1.42;1.33;;;;;;;21.54;64.61;98540.78;4847260;29;20501;-61
2021/06/30 11:58:44;;;;;;;1.30;1.10;;;;;;;21.97;63.10;98537.41;4842993;29;20090;-60
2021/06/30 12:01:39;;;;;;;1.83;1.10;;;;;;;22.39;61.92;98532.28;4847430;29;20045;-59
2021/06/30 12:04:13;;;;;;;1.10;1.00;;;;;;;21.93;63.25;98539.47;4839884;29;20046;-59
2021/06/30 12:06:40;;;;;;;1.70;1.02;;;;;;;21.46;64.58;98538.03;4846381;29;20053;-59
2021/06/30 12:09:24;;;;;;;1.83;1.25;;;;;;;20.98;67.14;98531.19;4854134;29;20049;-59
2021/06/30 12:12:07;;;;;;;2.03;1.20;;;;;;;20.65;68.81;98526.44;4823539;29;20145;-55
2021/06/30 12:14:37;;;;;;;2.30;1.20;;;;;;;20.41;70.40;98532.19;4839301;29;20058;-59
2021/06/30 12:17:04;;;;;;;2.08;1.60;;;;;;;20.26;71.78;98536.22;4842073;29;20140;-57
2021/06/30 12:19:38;;;;;;;2.00;1.42;;;;;;;20.16;72.65;98538.03;4813286;29;20108;-59
2021/06/30 12:22:17;;;;;;;5.38;1.77;;;;;;;20.03;73.43;98545.44;4816304;29;20056;-47
2021/06/30 12:24:43;;;;;;;1.98;1.50;;;;;;;19.90;74.22;98543.06;4851539;29;20124;-54
2021/06/30 12:27:10;;;;;;;3.25;1.90;;;;;;;19.81;75.02;98539.47;4845709;29;20046;-55
2021/06/30 12:29:39;;;;;;;2.40;1.90;;;;;;;20.48;72.92;98541.22;4856477;29;20053;-56
2021/06/30 12:32:14;;;;;;;2.33;1.52;;;;;;;21.00;69.68;98533.66;4847005;29;20038;-56